createdAt,value
2018-10-07T00:01:52.600Z,9.20
2018-10-07T00:04:23.076Z,9.53
2018-10-07T00:06:53.535Z,9.40
2018-10-07T00:09:23.925Z,9.20
2018-10-07T00:11:54.615Z,10.70
2018-10-07T00:14:25.003Z,9.23
2018-10-07T00:16:55.460Z,9.87
2018-10-07T00:19:25.842Z,10.10
2018-10-07T00:21:56.917Z,9.97
2018-10-07T00:24:27.305Z,10.20
2018-10-07T00:26:57.825Z,12.00
2018-10-07T00:29:28.328Z,11.87
2018-10-07T00:32:03.766Z,12.33
2018-10-07T00:34:34.282Z,12.47
2018-10-07T00:37:04.648Z,14.70
2018-10-07T00:39:34.926Z,14.90
2018-10-07T00:42:05.288Z,15.40
2018-10-07T00:44:35.949Z,17.10
2018-10-07T00:47:06.576Z,18.57
2018-10-07T00:49:37.121Z,18.10
2018-10-07T00:52:07.716Z,18.40
2018-10-07T00:54:38.086Z,20.87
2018-10-07T00:57:08.504Z,21.73
2018-10-07T00:59:38.805Z,22.10
2018-10-07T01:02:09.337Z,22.87
2018-10-07T01:04:39.758Z,22.33
2018-10-07T01:07:10.339Z,24.07
2018-10-07T01:09:40.724Z,26.20
2018-10-07T01:12:11.117Z,24.77
2018-10-07T01:14:41.553Z,28.20
2018-10-07T01:17:13.884Z,26.50
2018-10-07T01:19:44.384Z,28.50
2018-10-07T01:22:14.743Z,27.50
2018-10-07T01:24:45.144Z,29.83
2018-10-07T01:27:15.604Z,31.40
2018-10-07T01:29:46.003Z,28.53
2018-10-07T01:32:16.465Z,28.13
2018-10-07T01:34:47.070Z,32.00
2018-10-07T01:37:17.718Z,31.87
2018-10-07T01:39:48.266Z,33.17
2018-10-07T01:42:18.807Z,34.77
2018-10-07T01:44:49.517Z,35.57
2018-10-07T01:47:19.732Z,35.27
2018-10-07T01:49:50.420Z,34.07
2018-10-07T01:52:21.592Z,37.43
2018-10-07T01:54:51.818Z,35.97
2018-10-07T01:57:22.282Z,37.23
2018-10-07T01:59:52.720Z,35.40
2018-10-07T02:02:23.393Z,40.27
2018-10-07T02:04:53.868Z,39.40
2018-10-07T02:07:24.404Z,35.50
2018-10-07T02:09:54.642Z,38.07
2018-10-07T02:12:25.178Z,40.73
2018-10-07T02:14:55.595Z,39.47
2018-10-07T02:17:26.072Z,40.13
2018-10-07T02:19:56.560Z,40.27
2018-10-07T02:22:26.903Z,42.40
2018-10-07T02:24:57.293Z,42.50
2018-10-07T02:27:27.829Z,44.90
2018-10-07T02:29:58.181Z,46.73
2018-10-07T02:32:28.508Z,47.30
2018-10-07T02:34:58.932Z,50.43
2018-10-07T02:37:29.308Z,51.07
2018-10-07T02:39:59.731Z,52.20
2018-10-07T02:42:30.172Z,54.13
2018-10-07T02:45:00.691Z,55.33
2018-10-07T02:47:31.886Z,56.60
2018-10-07T02:50:06.375Z,57.10
2018-10-07T02:52:42.630Z,56.80
2018-10-07T02:55:13.133Z,57.23
2018-10-07T02:57:44.204Z,56.60
2018-10-07T03:00:14.734Z,57.77
2018-10-07T03:02:45.295Z,59.20
2018-10-07T03:05:15.739Z,58.17
2018-10-07T03:07:46.610Z,58.73
2018-10-07T03:10:17.708Z,58.03
2018-10-07T03:12:48.106Z,60.10
2018-10-07T03:15:18.544Z,62.10
2018-10-07T03:17:49.109Z,62.60
2018-10-07T03:20:19.464Z,58.10
2018-10-07T03:22:49.847Z,59.40
2018-10-07T03:25:20.140Z,58.20
2018-10-07T03:27:50.711Z,59.23
2018-10-07T03:30:21.216Z,59.30
2018-10-07T03:32:51.672Z,57.60
2018-10-07T03:35:22.172Z,57.40
2018-10-07T03:37:52.524Z,54.60
2018-10-07T03:40:23.031Z,54.77
2018-10-07T03:42:53.312Z,53.43
2018-10-07T03:45:23.694Z,53.37
2018-10-07T03:47:53.944Z,52.80
2018-10-07T03:50:24.295Z,51.47
2018-10-07T03:52:54.783Z,46.90
2018-10-07T03:55:25.116Z,48.10
2018-10-07T03:57:55.544Z,45.13
2018-10-07T04:00:26.981Z,41.40
2018-10-07T04:02:57.561Z,44.30
2018-10-07T04:05:28.059Z,43.43
2018-10-07T04:07:58.520Z,44.67
2018-10-07T04:10:28.790Z,45.70
2018-10-07T04:12:59.266Z,35.90
2018-10-07T04:15:29.588Z,29.40
2018-10-07T04:18:00.055Z,20.20
2018-10-07T04:20:30.652Z,19.03
2018-10-07T04:23:00.997Z,17.30
2018-10-07T04:25:31.369Z,18.07
2018-10-07T04:28:01.745Z,16.60
2018-10-07T04:30:32.060Z,15.60
2018-10-07T04:33:02.416Z,15.07
2018-10-07T04:35:32.793Z,15.13
2018-10-07T04:38:03.186Z,14.80
2018-10-07T04:40:34.159Z,13.40
2018-10-07T04:43:04.858Z,12.20
2018-10-07T04:45:35.353Z,11.87
2018-10-07T04:48:05.604Z,11.23
2018-10-07T04:50:35.990Z,12.00
2018-10-07T04:53:06.657Z,11.30
2018-10-07T04:55:40.734Z,10.30
2018-10-07T04:58:11.333Z,11.57
2018-10-07T05:00:41.702Z,13.30
2018-10-07T05:03:12.191Z,14.47
2018-10-07T05:05:42.900Z,15.33
2018-10-07T05:08:13.577Z,14.43
2018-10-07T05:10:49.866Z,15.67
2018-10-07T05:13:42.657Z,14.07
2018-10-07T05:16:14.336Z,14.07
2018-10-07T05:18:45.790Z,13.23
2018-10-07T05:21:16.180Z,12.83
2018-10-07T05:23:46.808Z,12.50
2018-10-07T05:26:17.240Z,12.93
2018-10-07T05:28:47.801Z,11.50
2018-10-07T05:31:18.496Z,11.73
2018-10-07T05:33:48.988Z,9.90
2018-10-07T05:36:19.580Z,9.13
2018-10-07T05:38:50.319Z,8.40
2018-10-07T05:41:20.817Z,8.70
2018-10-07T05:43:51.104Z,8.60
2018-10-07T05:46:21.504Z,8.40
2018-10-07T05:48:51.995Z,8.57
2018-10-07T05:51:22.481Z,8.13
2018-10-07T05:53:52.973Z,8.63
2018-10-07T05:56:23.540Z,7.20
2018-10-07T05:58:56.697Z,8.00
2018-10-07T06:01:46.320Z,7.43
2018-10-07T06:04:35.080Z,8.23
2018-10-07T06:07:05.804Z,8.00
2018-10-07T06:09:37.358Z,9.10
2018-10-07T06:12:08.094Z,8.53
2018-10-07T06:14:55.115Z,8.63
2018-10-07T06:17:25.525Z,8.50
2018-10-07T06:19:56.071Z,7.50
2018-10-07T06:22:29.264Z,7.80
2018-10-07T06:24:59.618Z,7.13
2018-10-07T06:27:30.208Z,6.17
2018-10-07T06:30:00.977Z,6.30
2018-10-07T06:32:31.411Z,5.97
2018-10-07T06:35:02.040Z,5.53
2018-10-07T06:37:32.669Z,5.77
2018-10-07T06:40:03.127Z,5.10
2018-10-07T06:42:33.690Z,4.87
2018-10-07T06:45:04.388Z,4.00
2018-10-07T06:47:35.106Z,3.37
2018-10-07T06:50:05.940Z,4.40
2018-10-07T06:52:36.347Z,3.70
2018-10-07T06:55:06.845Z,4.10
2018-10-07T06:57:37.220Z,3.80
2018-10-07T07:00:08.770Z,3.03
2018-10-07T07:02:39.159Z,3.20
2018-10-07T07:05:09.569Z,3.50
2018-10-07T07:07:40.736Z,3.40
2018-10-07T07:10:11.973Z,3.93
2018-10-07T07:12:42.432Z,4.97
2018-10-07T07:15:12.915Z,4.80
2018-10-07T07:17:43.339Z,4.30
2018-10-07T07:20:13.619Z,3.83
2018-10-07T07:22:43.856Z,4.13
2018-10-07T07:25:18.239Z,3.80
2018-10-07T07:27:48.519Z,3.63
2018-10-07T07:30:18.934Z,3.13
2018-10-07T07:32:49.414Z,3.57
2018-10-07T07:35:19.840Z,3.80
2018-10-07T07:37:50.088Z,3.63
2018-10-07T07:40:20.589Z,3.83
2018-10-07T07:42:50.976Z,4.10
2018-10-07T07:45:21.338Z,4.60
2018-10-07T07:47:51.628Z,4.00
2018-10-07T07:50:22.022Z,4.60
2018-10-07T07:52:52.408Z,3.47
2018-10-07T07:55:22.670Z,3.90
2018-10-07T07:57:53.743Z,4.47
2018-10-07T08:00:24.719Z,3.80
2018-10-07T08:02:55.270Z,3.53
2018-10-07T08:05:26.403Z,4.33
2018-10-07T08:07:57.367Z,4.10
2018-10-07T08:10:29.051Z,4.83
2018-10-07T08:13:00.216Z,3.83
2018-10-07T08:15:31.095Z,4.73
2018-10-07T08:18:01.555Z,4.50
2018-10-07T08:20:31.799Z,4.20
2018-10-07T08:23:02.094Z,4.40
2018-10-07T08:25:32.251Z,4.20
2018-10-07T08:28:02.508Z,4.03
2018-10-07T08:30:32.995Z,4.00
2018-10-07T08:33:03.402Z,4.03
2018-10-07T08:35:33.908Z,3.60
2018-10-07T08:38:04.278Z,3.47
2018-10-07T08:40:34.620Z,3.00
2018-10-07T08:43:05.029Z,2.53
2018-10-07T08:45:36.139Z,2.17
2018-10-07T08:48:06.645Z,2.37
2018-10-07T08:50:37.081Z,2.77
2018-10-07T08:53:07.575Z,2.17
2018-10-07T08:55:37.923Z,2.90
2018-10-07T08:58:08.335Z,2.40
2018-10-07T09:00:38.802Z,2.33
2018-10-07T09:03:09.959Z,2.33
2018-10-07T09:05:40.472Z,2.27
2018-10-07T09:08:10.857Z,2.27
2018-10-07T09:10:40.955Z,2.50
2018-10-07T09:13:10.977Z,2.37
2018-10-07T09:15:41.079Z,2.33
2018-10-07T09:18:11.113Z,2.17
2018-10-07T09:20:41.180Z,2.37
2018-10-07T09:23:11.520Z,2.30
2018-10-07T09:25:41.971Z,1.63
2018-10-07T09:28:12.859Z,1.73
2018-10-07T09:30:43.341Z,2.57
2018-10-07T09:33:13.620Z,1.70
2018-10-07T09:35:44.113Z,1.20
2018-10-07T09:38:14.920Z,1.30
2018-10-07T09:40:45.506Z,1.33
2018-10-07T09:43:15.888Z,1.60
2018-10-07T09:45:46.271Z,1.00
2018-10-07T09:48:16.789Z,1.00
2018-10-07T09:50:47.820Z,0.80
2018-10-07T09:53:18.546Z,0.90
2018-10-07T09:55:49.009Z,0.87
2018-10-07T09:58:19.401Z,0.90
2018-10-07T10:00:49.954Z,1.10
2018-10-07T10:03:22.121Z,0.77
2018-10-07T10:05:52.573Z,0.67
2018-10-07T10:08:22.829Z,0.87
2018-10-07T10:10:53.215Z,0.60
2018-10-07T10:13:23.715Z,0.50
2018-10-07T10:15:54.033Z,0.53
2018-10-07T10:18:47.566Z,0.60
2018-10-07T10:21:45.462Z,0.80
2018-10-07T10:24:32.519Z,0.67
2018-10-07T10:27:13.082Z,0.60
2018-10-07T10:29:50.264Z,0.70
2018-10-07T10:32:51.847Z,0.80
2018-10-07T10:35:51.543Z,0.57
2018-10-07T10:38:33.436Z,0.73
2018-10-07T10:41:14.820Z,0.70
2018-10-07T10:43:49.424Z,0.77
2018-10-07T10:46:41.886Z,0.50
2018-10-07T10:49:30.507Z,0.73
2018-10-07T10:52:15.024Z,0.53
2018-10-07T10:54:59.355Z,0.60
2018-10-07T10:57:53.657Z,0.50
2018-10-07T11:00:27.903Z,0.47
2018-10-07T11:03:18.051Z,0.80
2018-10-07T11:07:06.274Z,0.60
2018-10-07T11:09:53.937Z,0.67
2018-10-07T11:12:37.938Z,0.60
2018-10-07T11:15:22.847Z,0.47
2018-10-07T11:18:12.128Z,0.57
2018-10-07T11:20:57.558Z,1.00
2018-10-07T11:23:57.277Z,0.60
2018-10-07T11:26:44.323Z,0.67
2018-10-07T11:30:29.473Z,0.70
2018-10-07T11:34:20.148Z,0.60
2018-10-07T11:38:03.367Z,0.60
2018-10-07T11:40:51.490Z,0.73
2018-10-07T11:43:35.639Z,0.60
2018-10-07T11:46:28.872Z,0.60
2018-10-07T11:49:09.735Z,0.70
2018-10-07T11:51:53.378Z,0.90
2018-10-07T11:54:43.348Z,0.50
2018-10-07T11:57:13.699Z,0.60
2018-10-07T11:59:44.043Z,0.80
2018-10-07T12:02:14.514Z,0.50
2018-10-07T12:04:44.743Z,0.60
2018-10-07T12:07:15.229Z,0.60
2018-10-07T12:09:45.544Z,0.70
2018-10-07T12:12:16.604Z,0.63
2018-10-07T12:14:47.279Z,0.77
2018-10-07T12:17:17.788Z,0.77
2018-10-07T12:19:48.287Z,0.60
2018-10-07T12:22:18.637Z,0.60
2018-10-07T12:24:49.044Z,0.57
2018-10-07T12:27:19.505Z,1.00
2018-10-07T12:29:49.917Z,0.60
2018-10-07T12:32:20.376Z,0.60
2018-10-07T12:34:50.775Z,0.83
2018-10-07T12:37:21.057Z,0.70
2018-10-07T12:39:51.507Z,0.80
2018-10-07T12:42:22.078Z,0.50
2018-10-07T12:44:52.575Z,0.60
2018-10-07T12:47:23.189Z,0.60
2018-10-07T12:49:53.796Z,0.60
2018-10-07T12:52:24.262Z,0.47
2018-10-07T12:54:54.563Z,0.53
2018-10-07T12:57:25.055Z,0.70
2018-10-07T12:59:55.564Z,0.60
2018-10-07T13:02:26.079Z,0.60
2018-10-07T13:04:56.646Z,1.00
2018-10-07T13:07:27.250Z,0.60
2018-10-07T13:09:57.727Z,0.50
2018-10-07T13:12:28.036Z,0.70
2018-10-07T13:14:58.458Z,0.60
2018-10-07T13:17:29.003Z,0.70
2018-10-07T13:19:59.563Z,0.60
2018-10-07T13:22:29.936Z,0.60
2018-10-07T13:25:00.208Z,0.70
2018-10-07T13:27:30.723Z,0.70
2018-10-07T13:30:01.046Z,0.67
2018-10-07T13:32:31.548Z,0.70
2018-10-07T13:35:02.120Z,0.60
2018-10-07T13:37:32.730Z,0.60
2018-10-07T13:40:04.098Z,0.53
2018-10-07T13:45:35.469Z,0.63
2018-10-07T13:48:05.939Z,0.80
2018-10-07T13:50:36.352Z,0.50
2018-10-07T13:53:06.686Z,0.60
2018-10-07T13:55:36.990Z,0.60
2018-10-07T13:58:07.490Z,0.50
2018-10-07T14:00:37.948Z,0.73
2018-10-07T14:03:08.592Z,0.60
2018-10-07T14:05:39.025Z,0.60
2018-10-07T14:08:09.476Z,0.60
2018-10-07T14:10:39.948Z,0.60
2018-10-07T14:13:10.246Z,0.67
2018-10-07T14:15:40.711Z,0.50
2018-10-07T14:18:11.133Z,0.60
2018-10-07T14:20:41.405Z,0.47
2018-10-07T14:23:11.840Z,0.70
2018-10-07T14:25:42.244Z,0.70
2018-10-07T14:28:12.828Z,0.60
2018-10-07T14:30:43.528Z,0.60
2018-10-07T14:33:13.928Z,0.73
2018-10-07T14:35:44.432Z,0.70
2018-10-07T14:38:14.804Z,0.80
2018-10-07T14:40:45.140Z,0.50
2018-10-07T14:43:15.567Z,0.77
2018-10-07T14:45:46.007Z,0.57
2018-10-07T14:48:16.428Z,0.70
2018-10-07T14:50:47.189Z,0.70
2018-10-07T14:53:17.656Z,0.70
2018-10-07T14:55:48.040Z,0.70
2018-10-07T14:58:18.547Z,0.80
2018-10-07T15:00:48.992Z,0.77
2018-10-07T15:03:19.379Z,0.50
2018-10-07T15:05:49.879Z,0.80
2018-10-07T15:08:20.128Z,0.70
2018-10-07T15:10:50.508Z,0.70
2018-10-07T15:13:21.206Z,0.80
2018-10-07T15:15:51.600Z,0.70
2018-10-07T15:18:21.976Z,0.63
2018-10-07T15:20:52.524Z,0.70
2018-10-07T15:23:22.818Z,0.50
2018-10-07T15:25:53.320Z,0.70
2018-10-07T15:28:24.275Z,0.80
2018-10-07T15:30:54.921Z,1.00
2018-10-07T15:33:25.391Z,0.70
2018-10-07T15:35:55.968Z,0.70
2018-10-07T15:38:26.338Z,0.63
2018-10-07T15:40:56.599Z,0.70
2018-10-07T15:43:27.110Z,0.80
2018-10-07T15:45:57.603Z,0.93
2018-10-07T15:48:28.080Z,0.90
2018-10-07T15:50:59.040Z,0.63
2018-10-07T15:53:29.447Z,0.83
2018-10-07T15:55:59.823Z,1.33
2018-10-07T15:58:30.206Z,0.90
2018-10-07T16:01:00.778Z,0.87
2018-10-07T16:03:31.361Z,0.60
2018-10-07T16:06:01.864Z,0.80
2018-10-07T16:08:32.096Z,0.90
2018-10-07T16:11:02.481Z,0.73
2018-10-07T16:13:33.015Z,0.93
2018-10-07T16:16:03.399Z,1.00
2018-10-07T16:18:33.666Z,1.00
2018-10-07T16:21:04.203Z,1.40
2018-10-07T16:23:34.606Z,2.10
2018-10-07T16:26:05.030Z,1.97
2018-10-07T16:28:35.467Z,2.30
2018-10-07T16:31:05.748Z,2.80
2018-10-07T16:33:36.146Z,3.27
2018-10-07T16:36:06.585Z,2.97
2018-10-07T16:38:36.971Z,3.03
2018-10-07T16:41:07.956Z,2.43
2018-10-07T16:43:38.509Z,2.80
2018-10-07T16:46:27.152Z,2.47
2018-10-07T16:48:57.660Z,2.30
2018-10-07T16:51:28.041Z,1.87
2018-10-07T16:53:58.426Z,1.80
2018-10-07T16:56:29.648Z,1.90
2018-10-07T16:59:00.172Z,2.20
2018-10-07T17:01:30.666Z,1.90
2018-10-07T17:04:01.470Z,2.03
2018-10-07T17:06:32.036Z,1.97
2018-10-07T17:09:02.306Z,2.23
2018-10-07T17:11:32.709Z,2.00
2018-10-07T17:14:03.273Z,1.90
2018-10-07T17:16:33.868Z,2.37
2018-10-07T17:19:04.231Z,1.70
2018-10-07T17:21:34.611Z,2.00
2018-10-07T17:24:05.163Z,2.47
2018-10-07T17:26:35.843Z,2.00
2018-10-07T17:29:06.703Z,2.00
2018-10-07T17:31:37.145Z,2.80
2018-10-07T17:34:07.761Z,7.97
2018-10-07T17:36:38.337Z,6.27
2018-10-07T17:39:11.163Z,8.30
2018-10-07T17:41:41.844Z,7.40
2018-10-07T17:44:12.209Z,4.50
2018-10-07T17:46:42.815Z,3.87
2018-10-07T17:49:13.365Z,3.97
2018-10-07T17:51:44.289Z,3.47
2018-10-07T17:54:14.507Z,3.97
2018-10-07T17:56:46.009Z,3.37
2018-10-07T17:59:16.663Z,4.57
2018-10-07T18:01:47.310Z,4.30
2018-10-07T18:04:17.683Z,3.63
2018-10-07T18:06:48.125Z,3.00
2018-10-07T18:09:18.327Z,3.03
2018-10-07T18:11:48.769Z,2.33
2018-10-07T18:14:19.091Z,2.60
2018-10-07T18:16:49.420Z,2.00
2018-10-07T18:19:19.714Z,2.30
2018-10-07T18:21:50.416Z,2.07
2018-10-07T18:24:21.016Z,1.73
2018-10-07T18:26:51.274Z,2.10
2018-10-07T18:29:21.640Z,2.57
2018-10-07T18:31:52.154Z,3.27
2018-10-07T18:34:22.823Z,6.63
2018-10-07T18:36:53.211Z,6.97
2018-10-07T18:39:23.568Z,7.90
2018-10-07T18:41:54.040Z,7.83
2018-10-07T18:44:24.435Z,8.97
2018-10-07T18:46:54.748Z,8.47
2018-10-07T18:49:27.224Z,7.17
2018-10-07T18:51:57.631Z,6.27
2018-10-07T18:54:28.705Z,5.10
2018-10-07T18:57:00.005Z,4.33
2018-10-07T18:59:30.330Z,4.30
2018-10-07T19:02:00.823Z,4.43
2018-10-07T19:04:31.338Z,5.83
2018-10-07T19:07:02.511Z,5.03
2018-10-07T19:09:32.961Z,4.67
2018-10-07T19:12:03.973Z,6.10
2018-10-07T19:14:34.874Z,5.30
2018-10-07T19:17:05.416Z,5.00
2018-10-07T19:19:36.132Z,5.03
2018-10-07T19:22:06.572Z,5.37
2018-10-07T19:24:36.984Z,5.53
2018-10-07T19:27:07.708Z,4.10
2018-10-07T19:29:38.171Z,3.77
2018-10-07T19:32:08.503Z,3.60
2018-10-07T19:34:39.004Z,3.23
2018-10-07T19:37:09.679Z,3.13
2018-10-07T19:39:39.975Z,3.40
2018-10-07T19:42:11.286Z,3.30
2018-10-07T19:44:41.678Z,3.60
2018-10-07T19:47:11.883Z,3.53
2018-10-07T19:49:42.433Z,5.07
2018-10-07T19:52:12.878Z,3.67
2018-10-07T19:54:43.357Z,4.00
2018-10-07T19:57:13.760Z,5.10
2018-10-07T19:59:44.137Z,4.83
2018-10-07T20:02:14.807Z,8.03
2018-10-07T20:04:45.292Z,5.03
2018-10-07T20:07:15.748Z,5.27
2018-10-07T20:09:46.171Z,5.07
2018-10-07T20:12:16.424Z,5.27
2018-10-07T20:14:46.783Z,4.90
2018-10-07T20:17:17.166Z,4.60
2018-10-07T20:19:47.486Z,5.23
2018-10-07T20:22:18.707Z,4.97
2018-10-07T20:24:49.171Z,4.63
2018-10-07T20:27:19.627Z,4.60
2018-10-07T20:29:49.940Z,4.20
2018-10-07T20:32:20.359Z,4.03
2018-10-07T20:34:50.670Z,4.17
2018-10-07T20:37:21.236Z,3.00
2018-10-07T20:39:51.699Z,3.07
2018-10-07T20:42:22.289Z,3.67
2018-10-07T20:44:52.498Z,3.20
2018-10-07T20:47:22.852Z,3.60
2018-10-07T20:49:53.164Z,3.27
2018-10-07T20:52:23.570Z,3.03
2018-10-07T20:54:53.899Z,3.00
2018-10-07T20:57:24.269Z,2.60
2018-10-07T20:59:54.592Z,3.40
2018-10-07T21:02:25.047Z,3.33
2018-10-07T21:04:55.543Z,3.40
2018-10-07T21:07:25.886Z,3.73
2018-10-07T21:09:56.287Z,3.03
2018-10-07T21:12:26.653Z,3.50
2018-10-07T21:14:57.070Z,4.37
2018-10-07T21:17:27.332Z,5.57
2018-10-07T21:19:57.837Z,5.10
2018-10-07T21:22:28.377Z,4.23
2018-10-07T21:24:58.816Z,4.00
2018-10-07T21:27:29.346Z,4.00
2018-10-07T21:29:59.531Z,3.70
2018-10-07T21:32:29.898Z,3.20
2018-10-07T21:35:00.296Z,3.73
2018-10-07T21:37:30.576Z,3.10
2018-10-07T21:40:01.891Z,3.80
2018-10-07T21:42:32.140Z,2.97
2018-10-07T21:45:02.550Z,3.43
2018-10-07T21:47:32.869Z,3.30
2018-10-07T21:50:03.213Z,3.73
2018-10-07T21:52:33.746Z,3.40
2018-10-07T21:55:03.976Z,3.53
2018-10-07T21:57:34.316Z,3.00
2018-10-07T22:00:05.515Z,3.63
2018-10-07T22:02:35.790Z,3.27
2018-10-07T22:05:06.444Z,3.87
2018-10-07T22:07:37.052Z,2.17
2018-10-07T22:10:07.595Z,2.87
2018-10-07T22:12:37.953Z,2.63
2018-10-07T22:15:08.583Z,2.30
2018-10-07T22:17:38.865Z,2.13
2018-10-07T22:20:09.341Z,2.43
2018-10-07T22:22:39.863Z,2.23
2018-10-07T22:25:10.433Z,2.37
2018-10-07T22:27:41.023Z,2.90
2018-10-07T22:30:11.721Z,2.27
2018-10-07T22:32:42.191Z,2.40
2018-10-07T22:35:12.491Z,2.43
2018-10-07T22:37:42.849Z,2.80
2018-10-07T22:40:13.320Z,2.40
2018-10-07T22:42:43.802Z,2.70
2018-10-07T22:45:14.215Z,2.83
2018-10-07T22:47:44.563Z,3.10
2018-10-07T22:50:14.952Z,3.90
2018-10-07T22:52:45.318Z,3.97
2018-10-07T22:55:15.730Z,2.80
2018-10-07T22:57:46.088Z,3.13
2018-10-07T23:00:16.423Z,2.97
2018-10-07T23:02:46.819Z,2.70
2018-10-07T23:05:17.344Z,2.70
2018-10-07T23:07:47.811Z,2.70
2018-10-07T23:10:18.105Z,2.90
2018-10-07T23:12:48.595Z,2.80
2018-10-07T23:15:19.043Z,3.00
2018-10-07T23:17:49.543Z,3.13
2018-10-07T23:20:20.163Z,2.90
2018-10-07T23:22:50.612Z,3.07
2018-10-07T23:25:20.988Z,3.17
2018-10-07T23:27:51.247Z,2.97
2018-10-07T23:30:21.698Z,2.97
2018-10-07T23:32:52.260Z,3.13
2018-10-07T23:35:22.618Z,2.60
2018-10-07T23:37:52.988Z,2.80
2018-10-07T23:40:23.329Z,2.87
2018-10-07T23:42:53.749Z,2.63
2018-10-07T23:45:25.156Z,2.77
2018-10-07T23:47:55.506Z,2.73
2018-10-07T23:50:25.928Z,3.27
2018-10-07T23:52:56.292Z,2.87
2018-10-07T23:55:26.628Z,2.50
2018-10-07T23:57:56.917Z,2.90
